sensor_id;sensor_type;location;lat;lon;timestamp;pressure;altitude;pressure_sealevel;temperature;humidity
13732;BME280;6937;56.096;12.664;2023-02-02T00:01:24;99779.63;;;4.15;100.00
13732;BME280;6937;56.096;12.664;2023-02-02T00:03:50;99794.66;;;4.14;100.00
13732;BME280;6937;56.096;12.664;2023-02-02T00:06:17;99788.63;;;4.12;100.00
13732;BME280;6937;56.096;12.664;2023-02-02T00:08:43;99793.22;;;4.09;100.00
13732;BME280;6937;56.096;12.664;2023-02-02T00:11:09;99808.25;;;4.08;100.00
13732;BME280;6937;56.096;12.664;2023-02-02T00:13:34;99808.25;;;4.08;100.00
13732;BME280;6937;56.096;12.664;2023-02-02T00:16:20;99823.53;;;4.03;100.00
13732;BME280;6937;56.096;12.664;2023-02-02T00:18:45;99823.72;;;4.00;100.00
13732;BME280;6937;56.096;12.664;2023-02-02T00:21:11;99823.25;;;3.94;100.00
13732;BME280;6937;56.096;12.664;2023-02-02T00:23:36;99831.25;;;3.92;100.00
13732;BME280;6937;56.096;12.664;2023-02-02T00:26:01;99850.69;;;3.91;100.00
13732;BME280;6937;56.096;12.664;2023-02-02T00:28:27;99854.84;;;3.81;100.00
13732;BME280;6937;56.096;12.664;2023-02-02T00:30:52;99856.69;;;3.79;100.00
13732;BME280;6937;56.096;12.664;2023-02-02T00:33:17;99855.03;;;3.78;100.00
13732;BME280;6937;56.096;12.664;2023-02-02T00:35:42;99860.38;;;3.76;100.00
13732;BME280;6937;56.096;12.664;2023-02-02T00:38:08;99876.34;;;3.75;100.00
13732;BME280;6937;56.096;12.664;2023-02-02T00:40:33;99878.28;;;3.71;100.00
13732;BME280;6937;56.096;12.664;2023-02-02T00:42:59;99887.25;;;3.69;100.00
13732;BME280;6937;56.096;12.664;2023-02-02T00:45:24;99899.53;;;3.70;100.00
13732;BME280;6937;56.096;12.664;2023-02-02T00:47:50;99906.00;;;3.64;100.00
13732;BME280;6937;56.096;12.664;2023-02-02T00:50:18;99919.16;;;3.66;100.00
13732;BME280;6937;56.096;12.664;2023-02-02T00:52:46;99925.63;;;3.60;100.00
13732;BME280;6937;56.096;12.664;2023-02-02T00:55:12;99939.25;;;3.53;100.00
13732;BME280;6937;56.096;12.664;2023-02-02T00:57:38;99951.91;;;3.48;100.00
13732;BME280;6937;56.096;12.664;2023-02-02T01:00:05;99955.97;;;3.37;100.00
13732;BME280;6937;56.096;12.664;2023-02-02T01:02:32;99962.53;;;3.30;100.00
13732;BME280;6937;56.096;12.664;2023-02-02T01:04:57;99980.50;;;3.24;100.00
13732;BME280;6937;56.096;12.664;2023-02-02T01:07:22;99980.06;;;3.16;100.00
13732;BME280;6937;56.096;12.664;2023-02-02T01:09:48;99993.50;;;3.11;100.00
13732;BME280;6937;56.096;12.664;2023-02-02T01:12:13;99996.25;;;3.10;100.00
13732;BME280;6937;56.096;12.664;2023-02-02T01:14:39;99993.78;;;3.07;100.00
13732;BME280;6937;56.096;12.664;2023-02-02T01:17:04;100002.63;;;3.06;100.00
13732;BME280;6937;56.096;12.664;2023-02-02T01:19:29;100004.81;;;2.98;100.00
13732;BME280;6937;56.096;12.664;2023-02-02T01:21:55;100002.41;;;2.93;100.00
13732;BME280;6937;56.096;12.664;2023-02-02T01:24:20;99999.88;;;2.91;100.00
13732;BME280;6937;56.096;12.664;2023-02-02T01:26:46;100007.09;;;2.88;100.00
13732;BME280;6937;56.096;12.664;2023-02-02T01:29:11;100013.47;;;2.84;100.00
13732;BME280;6937;56.096;12.664;2023-02-02T01:31:36;100011.94;;;2.80;100.00
13732;BME280;6937;56.096;12.664;2023-02-02T01:34:02;100031.25;;;2.80;100.00
13732;BME280;6937;56.096;12.664;2023-02-02T01:36:27;100030.47;;;2.78;100.00
13732;BME280;6937;56.096;12.664;2023-02-02T01:38:53;100025.34;;;2.75;100.00
13732;BME280;6937;56.096;12.664;2023-02-02T01:41:22;100035.28;;;2.70;100.00
13732;BME280;6937;56.096;12.664;2023-02-02T01:43:57;100032.91;;;2.66;100.00
13732;BME280;6937;56.096;12.664;2023-02-02T01:46:26;100041.97;;;2.60;100.00
13732;BME280;6937;56.096;12.664;2023-02-02T01:48:57;100046.22;;;2.63;100.00
13732;BME280;6937;56.096;12.664;2023-02-02T01:51:37;100048.97;;;2.61;100.00
13732;BME280;6937;56.096;12.664;2023-02-02T01:54:05;100052.63;;;2.59;100.00
13732;BME280;6937;56.096;12.664;2023-02-02T01:56:40;100045.53;;;2.59;100.00
13732;BME280;6937;56.096;12.664;2023-02-02T01:59:07;100055.25;;;2.59;100.00
13732;BME280;6937;56.096;12.664;2023-02-02T02:01:34;100058.81;;;2.58;100.00
13732;BME280;6937;56.096;12.664;2023-02-02T02:03:59;100062.22;;;2.60;100.00
13732;BME280;6937;56.096;12.664;2023-02-02T02:06:25;100070.06;;;2.61;100.00
13732;BME280;6937;56.096;12.664;2023-02-02T02:09:09;100073.47;;;2.63;100.00
13732;BME280;6937;56.096;12.664;2023-02-02T02:11:35;100076.78;;;2.67;100.00
13732;BME280;6937;56.096;12.664;2023-02-02T02:14:04;100067.09;;;2.67;100.00
13732;BME280;6937;56.096;12.664;2023-02-02T02:17:11;100084.97;;;2.62;100.00
13732;BME280;6937;56.096;12.664;2023-02-02T02:22:47;100091.00;;;2.64;100.00
13732;BME280;6937;56.096;12.664;2023-02-02T02:32:00;100077.28;;;2.58;100.00
13732;BME280;6937;56.096;12.664;2023-02-02T02:34:53;100082.84;;;2.52;100.00
13732;BME280;6937;56.096;12.664;2023-02-02T02:40:00;100107.75;;;2.46;100.00
13732;BME280;6937;56.096;12.664;2023-02-02T02:42:30;100098.81;;;2.49;100.00
13732;BME280;6937;56.096;12.664;2023-02-02T02:45:00;100110.16;;;2.51;100.00
13732;BME280;6937;56.096;12.664;2023-02-02T02:47:29;100107.66;;;2.48;100.00
13732;BME280;6937;56.096;12.664;2023-02-02T02:49:54;100120.03;;;2.47;100.00
13732;BME280;6937;56.096;12.664;2023-02-02T02:52:20;100125.34;;;2.46;100.00
13732;BME280;6937;56.096;12.664;2023-02-02T02:54:48;100118.47;;;2.43;100.00
13732;BME280;6937;56.096;12.664;2023-02-02T03:02:56;100138.75;;;2.41;100.00
13732;BME280;6937;56.096;12.664;2023-02-02T03:08:31;100147.69;;;2.38;100.00
13732;BME280;6937;56.096;12.664;2023-02-02T03:11:00;100142.56;;;2.35;100.00
13732;BME280;6937;56.096;12.664;2023-02-02T03:13:29;100157.53;;;2.35;100.00
13732;BME280;6937;56.096;12.664;2023-02-02T03:15:55;100164.72;;;2.31;100.00
13732;BME280;6937;56.096;12.664;2023-02-02T03:18:22;100152.31;;;2.33;100.00
13732;BME280;6937;56.096;12.664;2023-02-02T03:20:48;100143.63;;;2.31;100.00
13732;BME280;6937;56.096;12.664;2023-02-02T03:23:13;100152.41;;;2.32;100.00
13732;BME280;6937;56.096;12.664;2023-02-02T03:25:39;100141.97;;;2.29;100.00
13732;BME280;6937;56.096;12.664;2023-02-02T03:28:05;100134.06;;;2.29;100.00
13732;BME280;6937;56.096;12.664;2023-02-02T03:30:31;100139.28;;;2.30;100.00
13732;BME280;6937;56.096;12.664;2023-02-02T03:32:57;100145.41;;;2.31;100.00
13732;BME280;6937;56.096;12.664;2023-02-02T03:35:22;100149.84;;;2.30;100.00
13732;BME280;6937;56.096;12.664;2023-02-02T03:37:49;100151.72;;;2.28;100.00
13732;BME280;6937;56.096;12.664;2023-02-02T03:40:15;100154.47;;;2.25;100.00
13732;BME280;6937;56.096;12.664;2023-02-02T03:42:40;100157.09;;;2.25;100.00
13732;BME280;6937;56.096;12.664;2023-02-02T03:45:06;100169.28;;;2.28;100.00
13732;BME280;6937;56.096;12.664;2023-02-02T03:47:32;100166.72;;;2.26;100.00
13732;BME280;6937;56.096;12.664;2023-02-02T03:49:57;100174.63;;;2.26;100.00
13732;BME280;6937;56.096;12.664;2023-02-02T03:52:23;100165.00;;;2.25;100.00
13732;BME280;6937;56.096;12.664;2023-02-02T03:54:49;100169.34;;;2.26;100.00
13732;BME280;6937;56.096;12.664;2023-02-02T03:57:14;100185.97;;;2.28;100.00
13732;BME280;6937;56.096;12.664;2023-02-02T03:59:39;100175.50;;;2.27;100.00
13732;BME280;6937;56.096;12.664;2023-02-02T04:02:05;100199.97;;;2.29;100.00
13732;BME280;6937;56.096;12.664;2023-02-02T04:04:30;100196.59;;;2.27;100.00
13732;BME280;6937;56.096;12.664;2023-02-02T04:06:55;100210.53;;;2.29;100.00
13732;BME280;6937;56.096;12.664;2023-02-02T04:09:23;100222.78;;;2.30;100.00
13732;BME280;6937;56.096;12.664;2023-02-02T04:11:48;100228.16;;;2.28;100.00
13732;BME280;6937;56.096;12.664;2023-02-02T04:14:14;100241.34;;;2.28;100.00
13732;BME280;6937;56.096;12.664;2023-02-02T04:16:39;100237.75;;;2.29;100.00
13732;BME280;6937;56.096;12.664;2023-02-02T04:19:04;100240.38;;;2.29;100.00
13732;BME280;6937;56.096;12.664;2023-02-02T04:21:30;100248.38;;;2.28;100.00
13732;BME280;6937;56.096;12.664;2023-02-02T04:23:55;100258.13;;;2.26;100.00
13732;BME280;6937;56.096;12.664;2023-02-02T04:26:21;100262.69;;;2.22;100.00
13732;BME280;6937;56.096;12.664;2023-02-02T04:28:49;100277.59;;;2.23;100.00
13732;BME280;6937;56.096;12.664;2023-02-02T04:31:15;100288.13;;;2.23;100.00
13732;BME280;6937;56.096;12.664;2023-02-02T04:33:40;100284.13;;;2.15;100.00
13732;BME280;6937;56.096;12.664;2023-02-02T04:36:06;100282.34;;;2.15;100.00
13732;BME280;6937;56.096;12.664;2023-02-02T04:38:31;100294.69;;;2.15;100.00
13732;BME280;6937;56.096;12.664;2023-02-02T04:40:57;100306.88;;;2.17;100.00
13732;BME280;6937;56.096;12.664;2023-02-02T04:43:22;100306.03;;;2.17;100.00
13732;BME280;6937;56.096;12.664;2023-02-02T04:45:53;100307.72;;;2.18;100.00
13732;BME280;6937;56.096;12.664;2023-02-02T04:48:19;100306.88;;;2.17;100.00
13732;BME280;6937;56.096;12.664;2023-02-02T04:50:44;100313.13;;;2.15;100.00
13732;BME280;6937;56.096;12.664;2023-02-02T04:53:09;100308.00;;;2.12;100.00
13732;BME280;6937;56.096;12.664;2023-02-02T04:55:36;100320.31;;;2.11;100.00
13732;BME280;6937;56.096;12.664;2023-02-02T04:58:02;100325.00;;;2.05;100.00
13732;BME280;6937;56.096;12.664;2023-02-02T05:00:27;100328.66;;;2.02;100.00
13732;BME280;6937;56.096;12.664;2023-02-02T05:02:53;100337.63;;;1.98;100.00
13732;BME280;6937;56.096;12.664;2023-02-02T05:05:18;100334.31;;;1.93;100.00
13732;BME280;6937;56.096;12.664;2023-02-02T05:07:44;100340.34;;;1.95;100.00
13732;BME280;6937;56.096;12.664;2023-02-02T05:10:10;100344.84;;;1.93;100.00
13732;BME280;6937;56.096;12.664;2023-02-02T05:12:36;100337.88;;;1.92;100.00
13732;BME280;6937;56.096;12.664;2023-02-02T05:15:02;100338.00;;;1.89;100.00
13732;BME280;6937;56.096;12.664;2023-02-02T05:17:29;100348.72;;;1.84;100.00
13732;BME280;6937;56.096;12.664;2023-02-02T05:19:55;100346.97;;;1.85;100.00
13732;BME280;6937;56.096;12.664;2023-02-02T05:22:20;100360.94;;;1.87;100.00
13732;BME280;6937;56.096;12.664;2023-02-02T05:24:46;100361.03;;;1.84;100.00
13732;BME280;6937;56.096;12.664;2023-02-02T05:27:11;100363.75;;;1.82;100.00
13732;BME280;6937;56.096;12.664;2023-02-02T05:29:36;100366.31;;;1.84;100.00
13732;BME280;6937;56.096;12.664;2023-02-02T05:32:02;100376.84;;;1.84;100.00
13732;BME280;6937;56.096;12.664;2023-02-02T05:34:27;100375.88;;;1.86;100.00
13732;BME280;6937;56.096;12.664;2023-02-02T05:36:53;100391.75;;;1.85;100.00
13732;BME280;6937;56.096;12.664;2023-02-02T05:39:18;100435.91;;;1.80;100.00
13732;BME280;6937;56.096;12.664;2023-02-02T05:41:44;100452.53;;;1.80;100.00
13732;BME280;6937;56.096;12.664;2023-02-02T05:44:13;100473.59;;;1.80;100.00
13732;BME280;6937;56.096;12.664;2023-02-02T05:46:38;100476.31;;;1.79;100.00
13732;BME280;6937;56.096;12.664;2023-02-02T05:49:05;100482.44;;;1.79;100.00
13732;BME280;6937;56.096;12.664;2023-02-02T05:51:41;100488.59;;;1.80;100.00
13732;BME280;6937;56.096;12.664;2023-02-02T05:54:07;100482.63;;;1.75;100.00
13732;BME280;6937;56.096;12.664;2023-02-02T05:56:33;100500.25;;;1.73;100.00
13732;BME280;6937;56.096;12.664;2023-02-02T05:58:58;100503.84;;;1.72;100.00
13732;BME280;6937;56.096;12.664;2023-02-02T06:01:24;100513.63;;;1.68;100.00
13732;BME280;6937;56.096;12.664;2023-02-02T06:03:50;100533.97;;;1.65;100.00
13732;BME280;6937;56.096;12.664;2023-02-02T06:06:15;100535.91;;;1.60;100.00
13732;BME280;6937;56.096;12.664;2023-02-02T06:08:40;100552.81;;;1.54;100.00
13732;BME280;6937;56.096;12.664;2023-02-02T06:11:11;100561.00;;;1.46;100.00
13732;BME280;6937;56.096;12.664;2023-02-02T06:13:36;100576.06;;;1.43;100.00
13732;BME280;6937;56.096;12.664;2023-02-02T06:16:02;100587.56;;;1.40;100.00
13732;BME280;6937;56.096;12.664;2023-02-02T06:18:27;100599.22;;;1.35;100.00
13732;BME280;6937;56.096;12.664;2023-02-02T06:20:59;100598.44;;;1.31;100.00
13732;BME280;6937;56.096;12.664;2023-02-02T06:23:25;100605.66;;;1.26;100.00
13732;BME280;6937;56.096;12.664;2023-02-02T06:25:50;100615.34;;;1.26;100.00
13732;BME280;6937;56.096;12.664;2023-02-02T06:28:16;100627.75;;;1.22;100.00
13732;BME280;6937;56.096;12.664;2023-02-02T06:30:41;100636.63;;;1.20;100.00
13732;BME280;6937;56.096;12.664;2023-02-02T06:33:06;100652.50;;;1.17;100.00
13732;BME280;6937;56.096;12.664;2023-02-02T06:35:32;100662.88;;;1.21;100.00
13732;BME280;6937;56.096;12.664;2023-02-02T06:37:58;100675.13;;;1.22;100.00
13732;BME280;6937;56.096;12.664;2023-02-02T06:40:24;100696.19;;;1.22;100.00
13732;BME280;6937;56.096;12.664;2023-02-02T06:42:57;100702.41;;;1.20;100.00
13732;BME280;6937;56.096;12.664;2023-02-02T06:45:23;100720.94;;;1.17;100.00
13732;BME280;6937;56.096;12.664;2023-02-02T06:47:49;100729.81;;;1.14;100.00
13732;BME280;6937;56.096;12.664;2023-02-02T06:50:14;100751.97;;;1.07;100.00
13732;BME280;6937;56.096;12.664;2023-02-02T06:52:49;100753.09;;;1.00;100.00
13732;BME280;6937;56.096;12.664;2023-02-02T06:55:15;100770.78;;;0.95;100.00
13732;BME280;6937;56.096;12.664;2023-02-02T06:57:40;100784.97;;;0.91;100.00
13732;BME280;6937;56.096;12.664;2023-02-02T07:00:06;100776.38;;;0.86;100.00
13732;BME280;6937;56.096;12.664;2023-02-02T07:02:32;100789.59;;;0.83;100.00
13732;BME280;6937;56.096;12.664;2023-02-02T07:04:57;100793.06;;;0.85;100.00
13732;BME280;6937;56.096;12.664;2023-02-02T07:07:22;100786.22;;;0.79;100.00
13732;BME280;6937;56.096;12.664;2023-02-02T07:09:48;100803.88;;;0.76;100.00
13732;BME280;6937;56.096;12.664;2023-02-02T07:12:13;100792.47;;;0.75;100.00
13732;BME280;6937;56.096;12.664;2023-02-02T07:14:38;100796.06;;;0.73;100.00
13732;BME280;6937;56.096;12.664;2023-02-02T07:17:04;100807.47;;;0.73;100.00
13732;BME280;6937;56.096;12.664;2023-02-02T07:19:29;100808.47;;;0.69;100.00
13732;BME280;6937;56.096;12.664;2023-02-02T07:21:55;100818.00;;;0.72;100.00
13732;BME280;6937;56.096;12.664;2023-02-02T07:24:20;100826.88;;;0.69;100.00
13732;BME280;6937;56.096;12.664;2023-02-02T07:26:45;100833.97;;;0.67;100.00
13732;BME280;6937;56.096;12.664;2023-02-02T07:29:12;100837.38;;;0.69;100.00
13732;BME280;6937;56.096;12.664;2023-02-02T07:31:40;100851.34;;;0.71;100.00
13732;BME280;6937;56.096;12.664;2023-02-02T07:34:05;100854.84;;;0.72;100.00
13732;BME280;6937;56.096;12.664;2023-02-02T07:36:31;100852.28;;;0.70;100.00
13732;BME280;6937;56.096;12.664;2023-02-02T07:38:56;100862.66;;;0.75;100.00
13732;BME280;6937;56.096;12.664;2023-02-02T07:41:22;100871.34;;;0.77;100.00
13732;BME280;6937;56.096;12.664;2023-02-02T07:43:49;100879.22;;;0.78;100.00
13732;BME280;6937;56.096;12.664;2023-02-02T07:46:16;100887.03;;;0.80;100.00
13732;BME280;6937;56.096;12.664;2023-02-02T07:48:41;100889.66;;;0.80;100.00
13732;BME280;6937;56.096;12.664;2023-02-02T07:51:10;100898.28;;;0.85;100.00
13732;BME280;6937;56.096;12.664;2023-02-02T07:53:35;100903.56;;;0.85;100.00
13732;BME280;6937;56.096;12.664;2023-02-02T07:56:27;100909.56;;;0.88;100.00
13732;BME280;6937;56.096;12.664;2023-02-02T07:58:54;100916.59;;;0.88;100.00
13732;BME280;6937;56.096;12.664;2023-02-02T08:01:21;100920.06;;;0.90;100.00
13732;BME280;6937;56.096;12.664;2023-02-02T08:03:48;100932.25;;;0.92;100.00
13732;BME280;6937;56.096;12.664;2023-02-02T08:06:18;100940.91;;;0.96;100.00
13732;BME280;6937;56.096;12.664;2023-02-02T08:08:45;100943.47;;;0.97;100.00
13732;BME280;6937;56.096;12.664;2023-02-02T08:11:13;100934.66;;;1.00;100.00
13732;BME280;6937;56.096;12.664;2023-02-02T08:13:39;100942.44;;;1.03;100.00
13732;BME280;6937;56.096;12.664;2023-02-02T08:16:05;100953.00;;;1.02;100.00
13732;BME280;6937;56.096;12.664;2023-02-02T08:18:32;100944.97;;;1.06;100.00
13732;BME280;6937;56.096;12.664;2023-02-02T08:20:59;100954.59;;;1.09;100.00
13732;BME280;6937;56.096;12.664;2023-02-02T08:23:24;100964.91;;;1.15;100.00
13732;BME280;6937;56.096;12.664;2023-02-02T08:25:50;100969.97;;;1.21;100.00
13732;BME280;6937;56.096;12.664;2023-02-02T08:28:16;100975.09;;;1.25;100.00
13732;BME280;6937;56.096;12.664;2023-02-02T08:30:41;100968.94;;;1.26;100.00
13732;BME280;6937;56.096;12.664;2023-02-02T08:33:07;100973.19;;;1.30;100.00
13732;BME280;6937;56.096;12.664;2023-02-02T08:35:32;100972.34;;;1.30;100.00
13732;BME280;6937;56.096;12.664;2023-02-02T08:37:57;100974.00;;;1.32;100.00
13732;BME280;6937;56.096;12.664;2023-02-02T08:40:27;100985.25;;;1.37;100.00
13732;BME280;6937;56.096;12.664;2023-02-02T08:42:53;100986.91;;;1.41;100.00
13732;BME280;6937;56.096;12.664;2023-02-02T08:45:19;100991.16;;;1.45;100.00
13732;BME280;6937;56.096;12.664;2023-02-02T08:47:44;100991.78;;;1.54;100.00
13732;BME280;6937;56.096;12.664;2023-02-02T08:50:10;100995.97;;;1.59;100.00
13732;BME280;6937;56.096;12.664;2023-02-02T08:52:35;100995.72;;;1.67;100.00
13732;BME280;6937;56.096;12.664;2023-02-02T08:55:01;100994.72;;;1.71;100.00
13732;BME280;6937;56.096;12.664;2023-02-02T08:57:27;100993.00;;;1.70;100.00
13732;BME280;6937;56.096;12.664;2023-02-02T08:59:52;101003.50;;;1.71;100.00
13732;BME280;6937;56.096;12.664;2023-02-02T09:02:18;101008.44;;;1.80;100.00
13732;BME280;6937;56.096;12.664;2023-02-02T09:04:43;101012.81;;;1.81;100.00
13732;BME280;6937;56.096;12.664;2023-02-02T09:07:11;101017.78;;;1.90;100.00
13732;BME280;6937;56.096;12.664;2023-02-02T09:09:36;101012.34;;;1.95;100.00
13732;BME280;6937;56.096;12.664;2023-02-02T09:12:02;101021.81;;;2.02;100.00
13732;BME280;6937;56.096;12.664;2023-02-02T09:14:28;101030.41;;;2.07;100.00
13732;BME280;6937;56.096;12.664;2023-02-02T09:16:53;101038.16;;;2.12;100.00
13732;BME280;6937;56.096;12.664;2023-02-02T09:19:18;101034.63;;;2.13;100.00
13732;BME280;6937;56.096;12.664;2023-02-02T09:21:44;101039.75;;;2.17;100.00
13732;BME280;6937;56.096;12.664;2023-02-02T09:24:11;101043.97;;;2.21;100.00
13732;BME280;6937;56.096;12.664;2023-02-02T09:26:37;101042.16;;;2.23;100.00
13732;BME280;6937;56.096;12.664;2023-02-02T09:29:05;101041.16;;;2.27;100.00
13732;BME280;6937;56.096;12.664;2023-02-02T09:31:35;101047.13;;;2.32;100.00
13732;BME280;6937;56.096;12.664;2023-02-02T09:34:03;101030.28;;;2.36;100.00
13732;BME280;6937;56.096;12.664;2023-02-02T09:36:29;101042.41;;;2.42;100.00
13732;BME280;6937;56.096;12.664;2023-02-02T09:38:55;101038.78;;;2.44;100.00
13732;BME280;6937;56.096;12.664;2023-02-02T09:49:38;101038.38;;;2.57;100.00
13732;BME280;6937;56.096;12.664;2023-02-02T09:52:13;101026.78;;;2.61;100.00
13732;BME280;6937;56.096;12.664;2023-02-02T09:54:47;101036.22;;;2.68;100.00
13732;BME280;6937;56.096;12.664;2023-02-02T09:57:21;101041.47;;;2.68;100.00
13732;BME280;6937;56.096;12.664;2023-02-02T09:59:50;101039.66;;;2.70;100.00
13732;BME280;6937;56.096;12.664;2023-02-02T10:02:23;101040.41;;;2.73;100.00
13732;BME280;6937;56.096;12.664;2023-02-02T10:04:55;101043.84;;;2.75;100.00
13732;BME280;6937;56.096;12.664;2023-02-02T10:07:30;101031.56;;;2.74;100.00
13732;BME280;6937;56.096;12.664;2023-02-02T10:10:38;101027.16;;;2.75;100.00
13732;BME280;6937;56.096;12.664;2023-02-02T10:13:13;101029.69;;;2.78;100.00
13732;BME280;6937;56.096;12.664;2023-02-02T10:16:03;101033.06;;;2.81;100.00
13732;BME280;6937;56.096;12.664;2023-02-02T10:21:05;101046.84;;;2.89;100.00
13732;BME280;6937;56.096;12.664;2023-02-02T10:23:37;101043.31;;;2.90;100.00
13732;BME280;6937;56.096;12.664;2023-02-02T10:26:19;101050.94;;;2.98;100.00
13732;BME280;6937;56.096;12.664;2023-02-02T10:32:00;101060.44;;;3.04;100.00
13732;BME280;6937;56.096;12.664;2023-02-02T10:34:32;101076.03;;;3.10;100.00
13732;BME280;6937;56.096;12.664;2023-02-02T10:40:02;101088.59;;;3.03;100.00
13732;BME280;6937;56.096;12.664;2023-02-02T10:42:44;101100.72;;;3.09;100.00
13732;BME280;6937;56.096;12.664;2023-02-02T10:45:34;101102.03;;;3.20;100.00
13732;BME280;6937;56.096;12.664;2023-02-02T10:48:02;101101.34;;;3.15;100.00
13732;BME280;6937;56.096;12.664;2023-02-02T10:50:29;101113.03;;;3.08;100.00
13732;BME280;6937;56.096;12.664;2023-02-02T10:52:59;101094.78;;;3.02;100.00
13732;BME280;6937;56.096;12.664;2023-02-02T10:55:37;101113.31;;;3.01;100.00
13732;BME280;6937;56.096;12.664;2023-02-02T11:00:46;101125.38;;;3.08;100.00
13732;BME280;6937;56.096;12.664;2023-02-02T11:03:16;101121.91;;;3.07;100.00
13732;BME280;6937;56.096;12.664;2023-02-02T11:05:44;101126.38;;;3.05;100.00
13732;BME280;6937;56.096;12.664;2023-02-02T11:08:34;101129.91;;;3.04;100.00
13732;BME280;6937;56.096;12.664;2023-02-02T11:11:20;101140.47;;;3.04;100.00
13732;BME280;6937;56.096;12.664;2023-02-02T11:16:36;101151.25;;;2.98;100.00
13732;BME280;6937;56.096;12.664;2023-02-02T11:19:22;101159.28;;;2.95;100.00
13732;BME280;6937;56.096;12.664;2023-02-02T11:21:53;101155.53;;;3.02;100.00
13732;BME280;6937;56.096;12.664;2023-02-02T11:24:23;101165.69;;;3.13;100.00
13732;BME280;6937;56.096;12.664;2023-02-02T11:26:56;101152.63;;;3.10;100.00
13732;BME280;6937;56.096;12.664;2023-02-02T11:29:53;101151.16;;;3.01;100.00
13732;BME280;6937;56.096;12.664;2023-02-02T11:37:32;101141.59;;;2.97;100.00
13732;BME280;6937;56.096;12.664;2023-02-02T11:40:36;101137.09;;;3.01;100.00
13732;BME280;6937;56.096;12.664;2023-02-02T11:43:06;101138.09;;;2.97;100.00
13732;BME280;6937;56.096;12.664;2023-02-02T11:45:40;101139.91;;;2.96;100.00
13732;BME280;6937;56.096;12.664;2023-02-02T11:48:14;101148.59;;;3.00;100.00
13732;BME280;6937;56.096;12.664;2023-02-02T11:50:45;101160.75;;;3.04;100.00
13732;BME280;6937;56.096;12.664;2023-02-02T11:56:06;101158.53;;;3.16;100.00
13732;BME280;6937;56.096;12.664;2023-02-02T11:58:53;101151.19;;;3.24;100.00
13732;BME280;6937;56.096;12.664;2023-02-02T12:01:26;101166.94;;;3.27;100.00
13732;BME280;6937;56.096;12.664;2023-02-02T12:03:56;101166.88;;;3.29;100.00
13732;BME280;6937;56.096;12.664;2023-02-02T12:06:25;101160.63;;;3.31;100.00
13732;BME280;6937;56.096;12.664;2023-02-02T12:08:56;101148.28;;;3.32;100.00
13732;BME280;6937;56.096;12.664;2023-02-02T12:11:47;101148.91;;;3.38;100.00
13732;BME280;6937;56.096;12.664;2023-02-02T12:17:00;101102.38;;;3.34;100.00
13732;BME280;6937;56.096;12.664;2023-02-02T12:22:52;101127.63;;;3.43;100.00
13732;BME280;6937;56.096;12.664;2023-02-02T12:28:16;101119.13;;;3.58;100.00
13732;BME280;6937;56.096;12.664;2023-02-02T12:30:58;101105.91;;;3.58;100.00
13732;BME280;6937;56.096;12.664;2023-02-02T12:41:38;101110.44;;;3.78;100.00
13732;BME280;6937;56.096;12.664;2023-02-02T12:44:25;101103.47;;;3.75;100.00
13732;BME280;6937;56.096;12.664;2023-02-02T12:53:10;101096.16;;;3.82;100.00
13732;BME280;6937;56.096;12.664;2023-02-02T13:01:06;101092.72;;;4.02;100.00
13732;BME280;6937;56.096;12.664;2023-02-02T13:09:22;101105.81;;;4.68;100.00
13732;BME280;6937;56.096;12.664;2023-02-02T13:12:06;101102.88;;;5.15;100.00
13732;BME280;6937;56.096;12.664;2023-02-02T13:14:46;101080.94;;;5.69;100.00
13732;BME280;6937;56.096;12.664;2023-02-02T13:17:18;101042.28;;;6.87;100.00
13732;BME280;6937;56.096;12.664;2023-02-02T13:19:49;100996.53;;;7.61;100.00
13732;BME280;6937;56.096;12.664;2023-02-02T13:22:32;100979.78;;;8.20;100.00
13732;BME280;6937;56.096;12.664;2023-02-02T13:25:02;100959.56;;;8.62;100.00
13732;BME280;6937;56.096;12.664;2023-02-02T13:27:29;100960.97;;;8.82;100.00
13732;BME280;6937;56.096;12.664;2023-02-02T13:30:02;100985.47;;;9.02;100.00
13732;BME280;6937;56.096;12.664;2023-02-02T13:32:33;101003.72;;;8.94;100.00
13732;BME280;6937;56.096;12.664;2023-02-02T13:35:17;101027.25;;;9.16;100.00
13732;BME280;6937;56.096;12.664;2023-02-02T13:38:10;101048.97;;;9.79;100.00
13732;BME280;6937;56.096;12.664;2023-02-02T13:40:42;101041.88;;;10.33;100.00
13732;BME280;6937;56.096;12.664;2023-02-02T13:48:15;101081.47;;;10.00;100.00
13732;BME280;6937;56.096;12.664;2023-02-02T13:50:52;101069.03;;;9.58;100.00
13732;BME280;6937;56.096;12.664;2023-02-02T13:53:53;101108.00;;;8.74;100.00
13732;BME280;6937;56.096;12.664;2023-02-02T13:59:10;101193.13;;;7.16;100.00
13732;BME280;6937;56.096;12.664;2023-02-02T14:01:44;101250.56;;;6.65;100.00
13732;BME280;6937;56.096;12.664;2023-02-02T14:04:24;101310.03;;;6.44;100.00
13732;BME280;6937;56.096;12.664;2023-02-02T14:07:00;101344.91;;;6.16;100.00
13732;BME280;6937;56.096;12.664;2023-02-02T14:09:32;101369.94;;;6.11;100.00
13732;BME280;6937;56.096;12.664;2023-02-02T14:12:02;101382.22;;;5.93;100.00
13732;BME280;6937;56.096;12.664;2023-02-02T14:14:31;101408.56;;;5.98;100.00
13732;BME280;6937;56.096;12.664;2023-02-02T14:24:43;101323.16;;;5.68;100.00
13732;BME280;6937;56.096;12.664;2023-02-02T14:34:50;101318.50;;;4.46;100.00
13732;BME280;6937;56.096;12.664;2023-02-02T14:47:54;101369.09;;;4.13;100.00
13732;BME280;6937;56.096;12.664;2023-02-02T14:50:26;101378.59;;;3.94;100.00
13732;BME280;6937;56.096;12.664;2023-02-02T14:53:02;101372.34;;;3.46;100.00
13732;BME280;6937;56.096;12.664;2023-02-02T14:55:28;101397.03;;;3.18;100.00
13732;BME280;6937;56.096;12.664;2023-02-02T14:57:57;101405.69;;;2.96;100.00
13732;BME280;6937;56.096;12.664;2023-02-02T15:00:27;101426.88;;;2.92;100.00